sensor_id;sensor_type;location;lat;lon;timestamp;P1;durP1;ratioP1;P2;durP2;ratioP2
11960;SDS011;6040;49.358;11.140;2022-10-20T00:00:13;12.73;;;6.83;;
11960;SDS011;6040;49.358;11.140;2022-10-20T00:02:40;9.77;;;7.33;;
11960;SDS011;6040;49.358;11.140;2022-10-20T00:05:08;11.63;;;7.43;;
11960;SDS011;6040;49.358;11.140;2022-10-20T00:07:35;10.93;;;7.43;;
11960;SDS011;6040;49.358;11.140;2022-10-20T00:10:02;16.67;;;7.50;;
11960;SDS011;6040;49.358;11.140;2022-10-20T00:12:29;8.00;;;6.53;;
11960;SDS011;6040;49.358;11.140;2022-10-20T00:14:56;10.10;;;6.80;;
11960;SDS011;6040;49.358;11.140;2022-10-20T00:17:23;7.47;;;6.77;;
11960;SDS011;6040;49.358;11.140;2022-10-20T00:19:50;8.67;;;7.13;;
11960;SDS011;6040;49.358;11.140;2022-10-20T00:22:18;11.53;;;7.03;;
11960;SDS011;6040;49.358;11.140;2022-10-20T00:24:44;11.93;;;7.50;;
11960;SDS011;6040;49.358;11.140;2022-10-20T00:27:11;9.43;;;7.20;;
11960;SDS011;6040;49.358;11.140;2022-10-20T00:29:38;10.03;;;7.03;;
11960;SDS011;6040;49.358;11.140;2022-10-20T00:32:05;11.53;;;7.20;;
11960;SDS011;6040;49.358;11.140;2022-10-20T00:34:31;9.90;;;7.03;;
11960;SDS011;6040;49.358;11.140;2022-10-20T00:36:58;10.13;;;6.87;;
11960;SDS011;6040;49.358;11.140;2022-10-20T00:39:26;8.37;;;6.87;;
11960;SDS011;6040;49.358;11.140;2022-10-20T00:41:54;12.03;;;6.83;;
11960;SDS011;6040;49.358;11.140;2022-10-20T00:47:16;10.70;;;6.70;;
11960;SDS011;6040;49.358;11.140;2022-10-20T00:49:45;9.73;;;7.00;;
11960;SDS011;6040;49.358;11.140;2022-10-20T00:52:13;8.53;;;6.60;;
11960;SDS011;6040;49.358;11.140;2022-10-20T00:54:44;8.80;;;6.50;;
11960;SDS011;6040;49.358;11.140;2022-10-20T00:57:11;13.73;;;7.70;;
11960;SDS011;6040;49.358;11.140;2022-10-20T00:59:39;9.70;;;7.10;;
11960;SDS011;6040;49.358;11.140;2022-10-20T01:02:06;9.03;;;6.97;;
11960;SDS011;6040;49.358;11.140;2022-10-20T01:04:34;11.63;;;7.30;;
11960;SDS011;6040;49.358;11.140;2022-10-20T01:07:02;8.93;;;7.27;;
11960;SDS011;6040;49.358;11.140;2022-10-20T01:09:29;10.53;;;6.97;;
11960;SDS011;6040;49.358;11.140;2022-10-20T01:11:59;11.03;;;8.07;;
11960;SDS011;6040;49.358;11.140;2022-10-20T01:14:37;15.67;;;8.10;;
11960;SDS011;6040;49.358;11.140;2022-10-20T01:17:14;8.47;;;7.40;;
11960;SDS011;6040;49.358;11.140;2022-10-20T01:20:02;8.03;;;7.17;;
11960;SDS011;6040;49.358;11.140;2022-10-20T01:23:00;6.97;;;6.37;;
11960;SDS011;6040;49.358;11.140;2022-10-20T01:25:49;10.73;;;7.27;;
11960;SDS011;6040;49.358;11.140;2022-10-20T01:28:30;9.50;;;7.07;;
11960;SDS011;6040;49.358;11.140;2022-10-20T01:31:02;12.67;;;7.50;;
11960;SDS011;6040;49.358;11.140;2022-10-20T01:33:38;10.07;;;7.10;;
11960;SDS011;6040;49.358;11.140;2022-10-20T01:36:10;13.57;;;8.27;;
11960;SDS011;6040;49.358;11.140;2022-10-20T01:38:45;16.57;;;7.90;;
11960;SDS011;6040;49.358;11.140;2022-10-20T01:41:20;10.13;;;8.80;;
11960;SDS011;6040;49.358;11.140;2022-10-20T01:43:53;9.77;;;8.43;;
11960;SDS011;6040;49.358;11.140;2022-10-20T01:46:21;9.87;;;7.77;;
11960;SDS011;6040;49.358;11.140;2022-10-20T01:48:51;14.73;;;8.13;;
11960;SDS011;6040;49.358;11.140;2022-10-20T01:51:19;10.17;;;7.67;;
11960;SDS011;6040;49.358;11.140;2022-10-20T01:53:46;10.90;;;7.67;;
11960;SDS011;6040;49.358;11.140;2022-10-20T01:56:13;8.40;;;6.77;;
11960;SDS011;6040;49.358;11.140;2022-10-20T01:58:58;8.00;;;7.00;;
11960;SDS011;6040;49.358;11.140;2022-10-20T02:01:53;12.47;;;7.27;;
11960;SDS011;6040;49.358;11.140;2022-10-20T02:04:44;12.40;;;7.57;;
11960;SDS011;6040;49.358;11.140;2022-10-20T02:07:20;10.43;;;8.23;;
11960;SDS011;6040;49.358;11.140;2022-10-20T02:09:52;14.13;;;8.63;;
11960;SDS011;6040;49.358;11.140;2022-10-20T02:12:23;9.13;;;7.83;;
11960;SDS011;6040;49.358;11.140;2022-10-20T02:14:54;10.23;;;6.97;;
11960;SDS011;6040;49.358;11.140;2022-10-20T02:17:21;9.30;;;6.93;;
11960;SDS011;6040;49.358;11.140;2022-10-20T02:19:49;9.60;;;6.63;;
11960;SDS011;6040;49.358;11.140;2022-10-20T02:22:18;7.97;;;5.93;;
11960;SDS011;6040;49.358;11.140;2022-10-20T02:24:46;11.90;;;6.80;;
11960;SDS011;6040;49.358;11.140;2022-10-20T02:27:14;8.50;;;6.20;;
11960;SDS011;6040;49.358;11.140;2022-10-20T02:29:45;9.00;;;6.50;;
11960;SDS011;6040;49.358;11.140;2022-10-20T02:32:18;10.40;;;6.70;;
11960;SDS011;6040;49.358;11.140;2022-10-20T02:34:46;9.40;;;6.07;;
11960;SDS011;6040;49.358;11.140;2022-10-20T02:37:13;11.10;;;6.40;;
11960;SDS011;6040;49.358;11.140;2022-10-20T02:39:40;7.57;;;5.90;;
11960;SDS011;6040;49.358;11.140;2022-10-20T02:42:07;8.37;;;5.43;;
11960;SDS011;6040;49.358;11.140;2022-10-20T02:44:33;7.53;;;5.50;;
11960;SDS011;6040;49.358;11.140;2022-10-20T02:47:00;6.47;;;5.40;;
11960;SDS011;6040;49.358;11.140;2022-10-20T02:49:28;6.97;;;5.90;;
11960;SDS011;6040;49.358;11.140;2022-10-20T02:51:55;11.00;;;5.70;;
11960;SDS011;6040;49.358;11.140;2022-10-20T02:54:22;12.83;;;5.93;;
11960;SDS011;6040;49.358;11.140;2022-10-20T02:56:49;7.67;;;6.17;;
11960;SDS011;6040;49.358;11.140;2022-10-20T02:59:16;12.13;;;6.63;;
11960;SDS011;6040;49.358;11.140;2022-10-20T03:01:42;9.83;;;6.90;;
11960;SDS011;6040;49.358;11.140;2022-10-20T03:04:09;7.83;;;6.60;;
11960;SDS011;6040;49.358;11.140;2022-10-20T03:06:38;8.90;;;6.87;;
11960;SDS011;6040;49.358;11.140;2022-10-20T03:09:06;8.13;;;6.87;;
11960;SDS011;6040;49.358;11.140;2022-10-20T03:11:33;8.90;;;7.13;;
11960;SDS011;6040;49.358;11.140;2022-10-20T03:14:00;12.07;;;7.20;;
11960;SDS011;6040;49.358;11.140;2022-10-20T03:16:27;9.57;;;7.07;;
11960;SDS011;6040;49.358;11.140;2022-10-20T03:18:54;9.53;;;6.77;;
11960;SDS011;6040;49.358;11.140;2022-10-20T03:21:21;10.00;;;6.73;;
11960;SDS011;6040;49.358;11.140;2022-10-20T03:23:49;8.97;;;6.77;;
11960;SDS011;6040;49.358;11.140;2022-10-20T03:26:16;11.80;;;7.20;;
11960;SDS011;6040;49.358;11.140;2022-10-20T03:28:42;9.33;;;7.10;;
11960;SDS011;6040;49.358;11.140;2022-10-20T03:31:09;10.67;;;6.80;;
11960;SDS011;6040;49.358;11.140;2022-10-20T03:33:36;8.10;;;5.90;;
11960;SDS011;6040;49.358;11.140;2022-10-20T03:36:03;7.23;;;6.53;;
11960;SDS011;6040;49.358;11.140;2022-10-20T03:38:30;8.33;;;6.50;;
11960;SDS011;6040;49.358;11.140;2022-10-20T03:40:59;8.90;;;6.37;;
11960;SDS011;6040;49.358;11.140;2022-10-20T03:43:26;10.00;;;7.00;;
11960;SDS011;6040;49.358;11.140;2022-10-20T03:45:59;9.10;;;6.30;;
11960;SDS011;6040;49.358;11.140;2022-10-20T03:48:27;8.17;;;6.67;;
11960;SDS011;6040;49.358;11.140;2022-10-20T03:50:54;12.70;;;6.83;;
11960;SDS011;6040;49.358;11.140;2022-10-20T03:53:21;9.57;;;7.03;;
11960;SDS011;6040;49.358;11.140;2022-10-20T03:55:48;15.20;;;6.70;;
11960;SDS011;6040;49.358;11.140;2022-10-20T03:58:16;9.80;;;7.47;;
11960;SDS011;6040;49.358;11.140;2022-10-20T04:00:43;7.13;;;6.40;;
11960;SDS011;6040;49.358;11.140;2022-10-20T04:03:10;7.70;;;6.70;;
11960;SDS011;6040;49.358;11.140;2022-10-20T04:05:37;7.93;;;6.57;;
11960;SDS011;6040;49.358;11.140;2022-10-20T04:08:04;7.90;;;6.80;;
11960;SDS011;6040;49.358;11.140;2022-10-20T04:10:31;17.40;;;7.07;;
11960;SDS011;6040;49.358;11.140;2022-10-20T04:12:58;9.97;;;6.77;;
11960;SDS011;6040;49.358;11.140;2022-10-20T04:15:27;10.67;;;6.37;;
11960;SDS011;6040;49.358;11.140;2022-10-20T04:17:54;8.87;;;6.83;;
11960;SDS011;6040;49.358;11.140;2022-10-20T04:20:20;9.10;;;6.77;;
11960;SDS011;6040;49.358;11.140;2022-10-20T04:22:47;12.50;;;6.27;;
11960;SDS011;6040;49.358;11.140;2022-10-20T04:25:14;7.43;;;6.20;;
11960;SDS011;6040;49.358;11.140;2022-10-20T04:27:41;11.40;;;6.50;;
11960;SDS011;6040;49.358;11.140;2022-10-20T04:30:08;9.30;;;6.30;;
11960;SDS011;6040;49.358;11.140;2022-10-20T04:32:37;8.17;;;6.33;;
11960;SDS011;6040;49.358;11.140;2022-10-20T04:35:04;14.77;;;7.00;;
11960;SDS011;6040;49.358;11.140;2022-10-20T04:37:31;11.63;;;6.80;;
11960;SDS011;6040;49.358;11.140;2022-10-20T04:39:58;12.63;;;7.03;;
11960;SDS011;6040;49.358;11.140;2022-10-20T04:42:25;7.17;;;6.47;;
11960;SDS011;6040;49.358;11.140;2022-10-20T04:44:52;9.67;;;6.80;;
11960;SDS011;6040;49.358;11.140;2022-10-20T04:47:19;8.37;;;7.10;;
11960;SDS011;6040;49.358;11.140;2022-10-20T04:49:47;10.70;;;7.93;;
11960;SDS011;6040;49.358;11.140;2022-10-20T04:52:14;11.20;;;7.80;;
11960;SDS011;6040;49.358;11.140;2022-10-20T04:54:41;13.03;;;7.97;;
11960;SDS011;6040;49.358;11.140;2022-10-20T04:57:08;13.47;;;8.97;;
11960;SDS011;6040;49.358;11.140;2022-10-20T04:59:35;10.70;;;8.37;;
11960;SDS011;6040;49.358;11.140;2022-10-20T05:02:02;15.00;;;8.37;;
11960;SDS011;6040;49.358;11.140;2022-10-20T05:04:28;9.23;;;7.30;;
11960;SDS011;6040;49.358;11.140;2022-10-20T05:06:56;11.43;;;7.07;;
11960;SDS011;6040;49.358;11.140;2022-10-20T05:09:23;8.87;;;7.17;;
11960;SDS011;6040;49.358;11.140;2022-10-20T05:11:50;8.47;;;7.33;;
11960;SDS011;6040;49.358;11.140;2022-10-20T05:14:17;11.00;;;7.37;;
11960;SDS011;6040;49.358;11.140;2022-10-20T05:16:44;8.93;;;6.80;;
11960;SDS011;6040;49.358;11.140;2022-10-20T05:19:11;8.97;;;7.27;;
11960;SDS011;6040;49.358;11.140;2022-10-20T05:21:38;8.80;;;6.93;;
11960;SDS011;6040;49.358;11.140;2022-10-20T05:24:06;9.33;;;6.73;;
11960;SDS011;6040;49.358;11.140;2022-10-20T05:26:37;8.80;;;7.07;;
11960;SDS011;6040;49.358;11.140;2022-10-20T05:29:05;9.60;;;7.50;;
11960;SDS011;6040;49.358;11.140;2022-10-20T05:31:35;10.23;;;6.47;;
11960;SDS011;6040;49.358;11.140;2022-10-20T05:34:02;10.40;;;7.50;;
11960;SDS011;6040;49.358;11.140;2022-10-20T05:36:29;7.43;;;6.53;;
11960;SDS011;6040;49.358;11.140;2022-10-20T05:38:56;14.80;;;7.10;;
11960;SDS011;6040;49.358;11.140;2022-10-20T05:41:25;12.60;;;7.30;;
11960;SDS011;6040;49.358;11.140;2022-10-20T05:43:54;10.40;;;7.67;;
11960;SDS011;6040;49.358;11.140;2022-10-20T05:46:22;9.77;;;7.93;;
11960;SDS011;6040;49.358;11.140;2022-10-20T05:48:51;10.13;;;8.10;;
11960;SDS011;6040;49.358;11.140;2022-10-20T05:51:19;10.37;;;8.43;;
11960;SDS011;6040;49.358;11.140;2022-10-20T05:53:48;8.90;;;7.20;;
11960;SDS011;6040;49.358;11.140;2022-10-20T05:56:17;11.57;;;8.07;;
11960;SDS011;6040;49.358;11.140;2022-10-20T05:58:47;13.90;;;8.63;;
11960;SDS011;6040;49.358;11.140;2022-10-20T06:01:15;13.47;;;9.00;;
11960;SDS011;6040;49.358;11.140;2022-10-20T06:03:48;10.47;;;8.73;;
11960;SDS011;6040;49.358;11.140;2022-10-20T06:06:15;11.93;;;8.47;;
11960;SDS011;6040;49.358;11.140;2022-10-20T06:08:43;13.40;;;8.47;;
11960;SDS011;6040;49.358;11.140;2022-10-20T06:11:11;11.13;;;8.53;;
11960;SDS011;6040;49.358;11.140;2022-10-20T06:13:39;10.30;;;8.40;;
11960;SDS011;6040;49.358;11.140;2022-10-20T06:16:08;13.53;;;8.27;;
11960;SDS011;6040;49.358;11.140;2022-10-20T06:18:37;13.93;;;9.20;;
11960;SDS011;6040;49.358;11.140;2022-10-20T06:21:04;17.97;;;11.70;;
11960;SDS011;6040;49.358;11.140;2022-10-20T06:23:33;16.90;;;11.40;;
11960;SDS011;6040;49.358;11.140;2022-10-20T06:26:00;14.47;;;11.73;;
11960;SDS011;6040;49.358;11.140;2022-10-20T06:28:29;17.53;;;10.40;;
11960;SDS011;6040;49.358;11.140;2022-10-20T06:30:56;11.63;;;8.60;;
11960;SDS011;6040;49.358;11.140;2022-10-20T06:33:25;13.20;;;9.27;;
11960;SDS011;6040;49.358;11.140;2022-10-20T06:35:57;11.10;;;8.90;;
11960;SDS011;6040;49.358;11.140;2022-10-20T06:38:25;11.10;;;8.57;;
11960;SDS011;6040;49.358;11.140;2022-10-20T06:40:51;10.60;;;7.77;;
11960;SDS011;6040;49.358;11.140;2022-10-20T06:43:18;11.30;;;8.30;;
11960;SDS011;6040;49.358;11.140;2022-10-20T06:45:52;12.27;;;9.00;;
11960;SDS011;6040;49.358;11.140;2022-10-20T06:48:19;11.07;;;8.80;;
11960;SDS011;6040;49.358;11.140;2022-10-20T06:50:47;12.60;;;9.20;;
11960;SDS011;6040;49.358;11.140;2022-10-20T06:53:14;10.27;;;8.03;;
11960;SDS011;6040;49.358;11.140;2022-10-20T06:55:41;12.17;;;8.67;;
11960;SDS011;6040;49.358;11.140;2022-10-20T06:58:08;16.47;;;8.67;;
11960;SDS011;6040;49.358;11.140;2022-10-20T07:00:35;13.40;;;9.10;;
11960;SDS011;6040;49.358;11.140;2022-10-20T07:03:02;10.93;;;8.53;;
11960;SDS011;6040;49.358;11.140;2022-10-20T07:05:29;11.97;;;8.50;;
11960;SDS011;6040;49.358;11.140;2022-10-20T07:07:57;10.43;;;8.50;;
11960;SDS011;6040;49.358;11.140;2022-10-20T07:10:24;11.10;;;8.47;;
11960;SDS011;6040;49.358;11.140;2022-10-20T07:12:50;10.47;;;8.43;;
11960;SDS011;6040;49.358;11.140;2022-10-20T07:15:17;12.20;;;8.30;;
11960;SDS011;6040;49.358;11.140;2022-10-20T07:17:44;11.90;;;8.67;;
11960;SDS011;6040;49.358;11.140;2022-10-20T07:20:12;14.50;;;9.00;;
11960;SDS011;6040;49.358;11.140;2022-10-20T07:22:39;11.00;;;8.07;;
11960;SDS011;6040;49.358;11.140;2022-10-20T07:25:08;10.20;;;7.50;;
11960;SDS011;6040;49.358;11.140;2022-10-20T07:27:34;9.90;;;7.40;;
11960;SDS011;6040;49.358;11.140;2022-10-20T07:30:01;8.70;;;7.43;;
11960;SDS011;6040;49.358;11.140;2022-10-20T07:32:29;8.73;;;7.27;;
11960;SDS011;6040;49.358;11.140;2022-10-20T07:34:56;9.30;;;7.20;;
11960;SDS011;6040;49.358;11.140;2022-10-20T07:37:23;8.43;;;6.47;;
11960;SDS011;6040;49.358;11.140;2022-10-20T07:39:50;7.70;;;6.90;;
11960;SDS011;6040;49.358;11.140;2022-10-20T07:42:18;9.90;;;7.13;;
11960;SDS011;6040;49.358;11.140;2022-10-20T07:44:45;10.83;;;7.10;;
11960;SDS011;6040;49.358;11.140;2022-10-20T07:47:11;9.20;;;7.93;;
11960;SDS011;6040;49.358;11.140;2022-10-20T07:49:38;10.87;;;6.93;;
11960;SDS011;6040;49.358;11.140;2022-10-20T07:52:05;10.17;;;6.90;;
11960;SDS011;6040;49.358;11.140;2022-10-20T07:54:32;9.20;;;6.80;;
11960;SDS011;6040;49.358;11.140;2022-10-20T07:56:59;9.87;;;6.80;;
11960;SDS011;6040;49.358;11.140;2022-10-20T07:59:27;10.57;;;7.07;;
11960;SDS011;6040;49.358;11.140;2022-10-20T08:01:54;9.30;;;6.93;;
11960;SDS011;6040;49.358;11.140;2022-10-20T08:04:21;10.93;;;6.50;;
11960;SDS011;6040;49.358;11.140;2022-10-20T08:06:47;9.40;;;6.90;;
11960;SDS011;6040;49.358;11.140;2022-10-20T08:09:14;8.63;;;6.80;;
11960;SDS011;6040;49.358;11.140;2022-10-20T08:11:41;9.97;;;6.80;;
11960;SDS011;6040;49.358;11.140;2022-10-20T08:14:08;8.73;;;6.40;;
11960;SDS011;6040;49.358;11.140;2022-10-20T08:16:36;9.70;;;6.63;;
11960;SDS011;6040;49.358;11.140;2022-10-20T08:19:03;10.37;;;6.20;;
11960;SDS011;6040;49.358;11.140;2022-10-20T08:21:29;6.90;;;6.20;;
11960;SDS011;6040;49.358;11.140;2022-10-20T08:23:56;6.20;;;5.20;;
11960;SDS011;6040;49.358;11.140;2022-10-20T08:26:24;8.03;;;6.30;;
11960;SDS011;6040;49.358;11.140;2022-10-20T08:28:52;8.80;;;6.43;;
11960;SDS011;6040;49.358;11.140;2022-10-20T08:31:19;6.53;;;5.87;;
11960;SDS011;6040;49.358;11.140;2022-10-20T08:33:48;11.67;;;6.43;;
11960;SDS011;6040;49.358;11.140;2022-10-20T08:36:15;8.10;;;6.30;;
11960;SDS011;6040;49.358;11.140;2022-10-20T08:38:42;7.87;;;5.60;;
11960;SDS011;6040;49.358;11.140;2022-10-20T08:41:11;7.67;;;5.23;;
11960;SDS011;6040;49.358;11.140;2022-10-20T08:43:43;8.33;;;5.90;;
11960;SDS011;6040;49.358;11.140;2022-10-20T08:46:12;7.43;;;5.77;;
11960;SDS011;6040;49.358;11.140;2022-10-20T08:48:41;12.17;;;6.33;;
11960;SDS011;6040;49.358;11.140;2022-10-20T08:51:13;10.07;;;6.13;;
11960;SDS011;6040;49.358;11.140;2022-10-20T08:53:44;9.63;;;5.57;;
11960;SDS011;6040;49.358;11.140;2022-10-20T08:56:12;8.07;;;5.80;;
11960;SDS011;6040;49.358;11.140;2022-10-20T08:58:40;10.07;;;6.00;;
11960;SDS011;6040;49.358;11.140;2022-10-20T09:01:17;7.00;;;5.70;;
11960;SDS011;6040;49.358;11.140;2022-10-20T09:03:48;6.97;;;5.40;;
11960;SDS011;6040;49.358;11.140;2022-10-20T09:06:21;6.90;;;5.37;;
11960;SDS011;6040;49.358;11.140;2022-10-20T09:08:48;6.23;;;5.10;;
11960;SDS011;6040;49.358;11.140;2022-10-20T09:11:16;7.70;;;5.43;;
11960;SDS011;6040;49.358;11.140;2022-10-20T09:13:46;5.90;;;5.30;;
11960;SDS011;6040;49.358;11.140;2022-10-20T09:16:14;7.93;;;5.43;;
11960;SDS011;6040;49.358;11.140;2022-10-20T09:18:46;8.07;;;5.67;;
11960;SDS011;6040;49.358;11.140;2022-10-20T09:21:18;7.17;;;5.13;;
11960;SDS011;6040;49.358;11.140;2022-10-20T09:23:48;8.20;;;6.03;;
11960;SDS011;6040;49.358;11.140;2022-10-20T09:26:18;7.40;;;5.67;;
11960;SDS011;6040;49.358;11.140;2022-10-20T09:28:46;5.80;;;5.20;;
11960;SDS011;6040;49.358;11.140;2022-10-20T09:31:21;7.03;;;5.10;;
11960;SDS011;6040;49.358;11.140;2022-10-20T09:33:55;7.00;;;4.87;;
11960;SDS011;6040;49.358;11.140;2022-10-20T09:36:24;7.13;;;5.03;;
11960;SDS011;6040;49.358;11.140;2022-10-20T09:38:55;10.13;;;4.70;;
11960;SDS011;6040;49.358;11.140;2022-10-20T09:41:23;8.87;;;5.07;;
11960;SDS011;6040;49.358;11.140;2022-10-20T09:43:53;6.23;;;5.00;;
11960;SDS011;6040;49.358;11.140;2022-10-20T09:46:22;6.00;;;5.27;;
11960;SDS011;6040;49.358;11.140;2022-10-20T09:48:50;7.37;;;4.93;;
11960;SDS011;6040;49.358;11.140;2022-10-20T09:51:19;5.73;;;4.50;;
11960;SDS011;6040;49.358;11.140;2022-10-20T09:53:50;6.27;;;5.10;;
11960;SDS011;6040;49.358;11.140;2022-10-20T09:56:23;7.17;;;5.37;;
11960;SDS011;6040;49.358;11.140;2022-10-20T09:58:52;7.90;;;5.37;;
11960;SDS011;6040;49.358;11.140;2022-10-20T10:01:20;8.27;;;4.90;;
11960;SDS011;6040;49.358;11.140;2022-10-20T10:03:47;6.90;;;4.83;;
11960;SDS011;6040;49.358;11.140;2022-10-20T10:06:20;5.80;;;4.83;;
11960;SDS011;6040;49.358;11.140;2022-10-20T10:08:54;5.97;;;4.50;;
11960;SDS011;6040;49.358;11.140;2022-10-20T10:11:23;6.53;;;5.03;;
11960;SDS011;6040;49.358;11.140;2022-10-20T10:13:53;6.93;;;4.17;;
11960;SDS011;6040;49.358;11.140;2022-10-20T10:16:21;5.17;;;4.40;;
11960;SDS011;6040;49.358;11.140;2022-10-20T10:18:53;5.70;;;5.10;;
11960;SDS011;6040;49.358;11.140;2022-10-20T10:21:22;7.07;;;4.70;;
11960;SDS011;6040;49.358;11.140;2022-10-20T10:23:50;5.33;;;4.63;;
11960;SDS011;6040;49.358;11.140;2022-10-20T10:26:33;5.20;;;4.43;;
11960;SDS011;6040;49.358;11.140;2022-10-20T10:29:17;8.70;;;4.67;;
11960;SDS011;6040;49.358;11.140;2022-10-20T10:31:50;5.00;;;4.50;;
11960;SDS011;6040;49.358;11.140;2022-10-20T10:34:23;5.53;;;4.30;;
11960;SDS011;6040;49.358;11.140;2022-10-20T10:37:02;6.57;;;4.20;;
11960;SDS011;6040;49.358;11.140;2022-10-20T10:39:29;5.97;;;4.33;;
11960;SDS011;6040;49.358;11.140;2022-10-20T10:45:11;5.53;;;4.27;;
11960;SDS011;6040;49.358;11.140;2022-10-20T10:50:42;5.77;;;4.20;;
11960;SDS011;6040;49.358;11.140;2022-10-20T10:53:19;5.30;;;4.13;;
11960;SDS011;6040;49.358;11.140;2022-10-20T10:55:53;5.23;;;4.73;;
11960;SDS011;6040;49.358;11.140;2022-10-20T10:58:32;4.23;;;3.83;;
11960;SDS011;6040;49.358;11.140;2022-10-20T11:01:11;5.53;;;4.33;;
11960;SDS011;6040;49.358;11.140;2022-10-20T11:06:55;8.63;;;4.57;;
11960;SDS011;6040;49.358;11.140;2022-10-20T11:09:30;4.13;;;3.73;;
11960;SDS011;6040;49.358;11.140;2022-10-20T11:12:20;8.37;;;3.80;;
11960;SDS011;6040;49.358;11.140;2022-10-20T11:15:01;7.07;;;4.73;;
11960;SDS011;6040;49.358;11.140;2022-10-20T11:17:42;6.40;;;4.70;;
11960;SDS011;6040;49.358;11.140;2022-10-20T11:20:23;6.70;;;4.60;;
11960;SDS011;6040;49.358;11.140;2022-10-20T11:26:09;5.93;;;4.60;;
11960;SDS011;6040;49.358;11.140;2022-10-20T11:28:42;6.07;;;4.53;;
11960;SDS011;6040;49.358;11.140;2022-10-20T11:31:15;5.00;;;4.10;;
11960;SDS011;6040;49.358;11.140;2022-10-20T11:33:52;4.93;;;4.23;;
11960;SDS011;6040;49.358;11.140;2022-10-20T11:36:22;4.80;;;4.30;;
11960;SDS011;6040;49.358;11.140;2022-10-20T11:38:51;5.90;;;4.43;;
11960;SDS011;6040;49.358;11.140;2022-10-20T11:41:21;6.30;;;4.20;;
11960;SDS011;6040;49.358;11.140;2022-10-20T11:43:54;5.47;;;4.10;;
11960;SDS011;6040;49.358;11.140;2022-10-20T11:46:27;6.43;;;4.17;;
11960;SDS011;6040;49.358;11.140;2022-10-20T11:49:02;5.00;;;4.03;;
11960;SDS011;6040;49.358;11.140;2022-10-20T11:51:40;8.57;;;3.83;;
11960;SDS011;6040;49.358;11.140;2022-10-20T11:54:57;5.70;;;4.07;;
11960;SDS011;6040;49.358;11.140;2022-10-20T11:57:50;5.80;;;3.77;;
11960;SDS011;6040;49.358;11.140;2022-10-20T12:00:34;4.87;;;3.57;;
11960;SDS011;6040;49.358;11.140;2022-10-20T12:06:25;6.00;;;3.90;;
11960;SDS011;6040;49.358;11.140;2022-10-20T12:09:23;6.37;;;3.40;;
11960;SDS011;6040;49.358;11.140;2022-10-20T12:12:11;5.57;;;3.30;;
11960;SDS011;6040;49.358;11.140;2022-10-20T12:14:43;5.60;;;3.93;;
11960;SDS011;6040;49.358;11.140;2022-10-20T12:17:19;4.53;;;3.53;;
11960;SDS011;6040;49.358;11.140;2022-10-20T12:38:26;5.23;;;3.87;;
11960;SDS011;6040;49.358;11.140;2022-10-20T12:40:55;5.50;;;4.00;;
11960;SDS011;6040;49.358;11.140;2022-10-20T12:43:27;3.77;;;3.40;;
11960;SDS011;6040;49.358;11.140;2022-10-20T12:45:57;5.13;;;3.57;;
11960;SDS011;6040;49.358;11.140;2022-10-20T12:48:30;3.93;;;3.47;;
11960;SDS011;6040;49.358;11.140;2022-10-20T12:51:02;4.30;;;3.87;;
11960;SDS011;6040;49.358;11.140;2022-10-20T12:53:32;5.13;;;3.63;;
11960;SDS011;6040;49.358;11.140;2022-10-20T12:56:02;4.93;;;3.50;;
11960;SDS011;6040;49.358;11.140;2022-10-20T12:58:33;3.93;;;3.50;;
11960;SDS011;6040;49.358;11.140;2022-10-20T13:01:10;4.10;;;3.33;;
11960;SDS011;6040;49.358;11.140;2022-10-20T13:03:41;6.87;;;3.43;;
11960;SDS011;6040;49.358;11.140;2022-10-20T13:09:18;4.77;;;3.60;;
11960;SDS011;6040;49.358;11.140;2022-10-20T13:14:51;4.30;;;3.30;;
11960;SDS011;6040;49.358;11.140;2022-10-20T13:17:22;6.27;;;3.67;;
11960;SDS011;6040;49.358;11.140;2022-10-20T13:19:56;4.40;;;3.57;;
11960;SDS011;6040;49.358;11.140;2022-10-20T13:22:30;4.33;;;3.47;;
11960;SDS011;6040;49.358;11.140;2022-10-20T13:25:02;4.73;;;3.70;;
11960;SDS011;6040;49.358;11.140;2022-10-20T13:27:31;6.50;;;3.57;;
11960;SDS011;6040;49.358;11.140;2022-10-20T13:29:59;4.93;;;3.50;;
11960;SDS011;6040;49.358;11.140;2022-10-20T13:32:32;5.80;;;3.43;;
11960;SDS011;6040;49.358;11.140;2022-10-20T13:35:07;5.47;;;3.53;;
11960;SDS011;6040;49.358;11.140;2022-10-20T13:37:45;4.90;;;3.50;;
11960;SDS011;6040;49.358;11.140;2022-10-20T13:40:21;5.37;;;3.60;;
11960;SDS011;6040;49.358;11.140;2022-10-20T13:42:56;3.83;;;3.37;;
11960;SDS011;6040;49.358;11.140;2022-10-20T13:45:37;6.63;;;3.60;;
11960;SDS011;6040;49.358;11.140;2022-10-20T13:48:18;7.57;;;3.47;;
11960;SDS011;6040;49.358;11.140;2022-10-20T13:50:57;5.77;;;3.40;;
11960;SDS011;6040;49.358;11.140;2022-10-20T13:53:27;6.77;;;4.50;;
11960;SDS011;6040;49.358;11.140;2022-10-20T13:55:58;4.90;;;4.40;;
11960;SDS011;6040;49.358;11.140;2022-10-20T13:58:29;6.20;;;3.37;;
11960;SDS011;6040;49.358;11.140;2022-10-20T14:00:58;5.73;;;3.20;;
11960;SDS011;6040;49.358;11.140;2022-10-20T14:03:27;5.17;;;3.70;;
11960;SDS011;6040;49.358;11.140;2022-10-20T14:05:54;7.40;;;3.57;;
11960;SDS011;6040;49.358;11.140;2022-10-20T14:08:23;5.40;;;3.40;;
11960;SDS011;6040;49.358;11.140;2022-10-20T14:10:51;6.40;;;3.77;;
11960;SDS011;6040;49.358;11.140;2022-10-20T14:13:21;7.07;;;3.60;;
11960;SDS011;6040;49.358;11.140;2022-10-20T14:15:51;6.40;;;3.90;;
11960;SDS011;6040;49.358;11.140;2022-10-20T14:18:23;7.03;;;3.60;;
11960;SDS011;6040;49.358;11.140;2022-10-20T14:20:55;3.70;;;3.40;;
11960;SDS011;6040;49.358;11.140;2022-10-20T14:23:24;4.03;;;3.57;;
11960;SDS011;6040;49.358;11.140;2022-10-20T14:25:53;4.83;;;3.43;;
11960;SDS011;6040;49.358;11.140;2022-10-20T14:28:21;5.27;;;3.63;;
11960;SDS011;6040;49.358;11.140;2022-10-20T14:30:57;4.00;;;3.43;;
11960;SDS011;6040;49.358;11.140;2022-10-20T14:33:26;4.13;;;3.30;;
11960;SDS011;6040;49.358;11.140;2022-10-20T14:35:54;4.60;;;3.23;;
11960;SDS011;6040;49.358;11.140;2022-10-20T14:38:23;7.37;;;3.40;;
11960;SDS011;6040;49.358;11.140;2022-10-20T14:40:55;3.87;;;3.20;;
11960;SDS011;6040;49.358;11.140;2022-10-20T14:43:34;7.40;;;3.80;;
11960;SDS011;6040;49.358;11.140;2022-10-20T14:46:04;4.83;;;3.10;;
11960;SDS011;6040;49.358;11.140;2022-10-20T14:48:34;5.73;;;3.17;;
11960;SDS011;6040;49.358;11.140;2022-10-20T14:56:50;6.13;;;3.57;;
11960;SDS011;6040;49.358;11.140;2022-10-20T14:59:18;5.27;;;3.40;;
11960;SDS011;6040;49.358;11.140;2022-10-20T15:01:55;5.63;;;3.63;;
11960;SDS011;6040;49.358;11.140;2022-10-20T15:04:27;4.63;;;3.17;;
11960;SDS011;6040;49.358;11.140;2022-10-20T15:07:01;4.23;;;3.20;;
11960;SDS011;6040;49.358;11.140;2022-10-20T15:09:36;5.77;;;3.20;;
11960;SDS011;6040;49.358;11.140;2022-10-20T15:12:05;4.03;;;3.03;;
11960;SDS011;6040;49.358;11.140;2022-10-20T15:14:37;5.53;;;3.27;;
11960;SDS011;6040;49.358;11.140;2022-10-20T15:23:02;7.43;;;3.70;;
11960;SDS011;6040;49.358;11.140;2022-10-20T15:25:32;5.80;;;3.80;;
11960;SDS011;6040;49.358;11.140;2022-10-20T15:28:11;5.37;;;3.50;;
11960;SDS011;6040;49.358;11.140;2022-10-20T15:30:46;4.83;;;3.60;;
11960;SDS011;6040;49.358;11.140;2022-10-20T15:33:13;6.07;;;3.60;;
11960;SDS011;6040;49.358;11.140;2022-10-20T15:35:41;4.27;;;3.60;;
11960;SDS011;6040;49.358;11.140;2022-10-20T15:38:11;5.47;;;3.47;;
11960;SDS011;6040;49.358;11.140;2022-10-20T15:40:37;6.90;;;3.97;;
11960;SDS011;6040;49.358;11.140;2022-10-20T15:43:04;7.87;;;4.73;;
11960;SDS011;6040;49.358;11.140;2022-10-20T15:45:31;4.40;;;4.00;;
11960;SDS011;6040;49.358;11.140;2022-10-20T15:48:02;6.17;;;3.97;;
11960;SDS011;6040;49.358;11.140;2022-10-20T15:50:29;4.40;;;3.17;;
11960;SDS011;6040;49.358;11.140;2022-10-20T15:52:58;15.33;;;3.90;;
11960;SDS011;6040;49.358;11.140;2022-10-20T15:55:25;6.63;;;3.87;;